Bolzano Airport

LIPB · Trentino-Alto Adige, 意大利

罗盘
风向 的 Bolzano Airport 1/19
风: 1 kt, 1 beaufort

1 kt

改变
0 5.000 10.000 15.000 20.000
SCT 12.000 ft
METAR LIPB 012050Z VRB01KT 9999 SCT120 13/12 Q1017

METAR Bolzano Airport - LIPB/BZO

Bolzano Airport是Bolzano,意大利中的中型机场。 该机场有2条跑道: 1/19 和 1R/19L. 该领域的国际民航组织标志是LIPB 它的国际航空运输协会代码是BZO.

这份报告是针对2022年10月1日 22:50, 当地时间在Bolzano Airport进行的。

机场观察

可变方向的风很小或没有风。

可见度为10 km 或者更多。

有疏云,零星散落的云朵在12.000 ft的高度。 没有观察到天花板。

温度和风寒是13 °C。 露点为12 °C,相对湿度为94%。 海平面上的气压为1017 hPa (QNH)。

白天

今天,太阳从07:14升起,在18:53降落。 这适用于Bolzano Airport,世界夏令时可能有所不同。 当地时间与世界标准时间之间的时差为+2 小时。 夏令时目前正在进行中。

公司介绍

我们没有关于这个机场的公司信息。

体会

到Vliegles.nl去找飞行课程,跳伞和其他飞行体验。 浏览页面,了解Bolzano Airport附近所有可用的活动。 你也可以使用搜索功能来寻找你所在地附近的特定飞行课程、跳伞或其他飞行体验。

跑道

Id 标题 侧风 逆风 侧风 %
1/19 010°-190° 17 %
1R/19L 011°-191° 19 %

逆风成分最大的方向会被突出显示,并用于横风计算。 这并不一定意味着这个方向在使用。

乌云

12.000 ft SCT 疏云,零星散落的云朵

温度 & 天气

温度 13 °C
露点 12 °C
相对湿度 94%
Kp-index 1 (0-9)

白天

日出
07:13
中午
13:04
日落
18:55

小工具

你想在你的网站上有一个关于Bolzano Airport的当前航空天气(METAR)的小部件吗?

</> 显示HTML代码

我们和第三方通过cookies跟踪您在我们网站上的上网行为。如果您继续,我们认为您同意我们的cookie政策。 了解更多